BRU937 UMMS-UWKD
Flight info
| Callsign | BRU937 |
|---|---|
| Flight time | 1h 50m |
| Altitude | 35000 |
| Route | AGNEF N869 RATIN L999 AGLAN M864 INKEB L94 UNORO T788 KOROM |
| Aircraft | B738/M-SDE2E3FGHIRWXY/LB1 |
Departure
| Time | 2026-05-06 17:46 |
|---|---|
| Airport | Minsk National Airport (UMMS) |
Arrival
| Time | 2026-05-06 19:36 |
|---|---|
| Airport | Kazan International Airport (UWKD) |
| Time | Latitude | Longitude | Altitude | Speed | Heading |
|---|---|---|---|---|---|
| 2026-05-06 17:36 | 53.88774 | 28.03612 | 639 ft | 0 kts | 318° |
| 2026-05-06 17:43 | 53.88780 | 28.03608 | 659 ft | 5 kts | 339° |
| 2026-05-06 17:44 | 53.88861 | 28.03658 | 634 ft | 24 kts | 23° |
| 2026-05-06 17:44 | 53.88900 | 28.03886 | 635 ft | 26 kts | 130° |
| 2026-05-06 17:44 | 53.88823 | 28.04148 | 635 ft | 23 kts | 56° |
| 2026-05-06 17:44 | 53.88995 | 28.04455 | 637 ft | 40 kts | 46° |
| 2026-05-06 17:45 | 53.89168 | 28.04813 | 641 ft | 32 kts | 67° |
| 2026-05-06 17:45 | 53.89050 | 28.05111 | 634 ft | 46 kts | 139° |
| 2026-05-06 17:45 | 53.88779 | 28.05511 | 634 ft | 53 kts | 139° |
| 2026-05-06 17:45 | 53.88662 | 28.05823 | 636 ft | 14 kts | 53° |
| 2026-05-06 17:46 | 53.88802 | 28.05798 | 636 ft | 48 kts | 341° |
| 2026-05-06 17:46 | 53.89306 | 28.05124 | 634 ft | 134 kts | 319° |
| 2026-05-06 17:46 | 53.90150 | 28.03813 | 924 ft | 184 kts | 316° |
| 2026-05-06 17:46 | 53.91205 | 28.02265 | 1583 ft | 213 kts | 315° |
| 2026-05-06 17:47 | 53.92302 | 28.00662 | 2965 ft | 208 kts | 312° |
| 2026-05-06 17:47 | 53.93438 | 27.98976 | 3709 ft | 224 kts | 311° |
| 2026-05-06 17:47 | 53.94638 | 27.97206 | 4372 ft | 234 kts | 315° |
| 2026-05-06 17:47 | 53.96223 | 27.95968 | 4934 ft | 265 kts | 348° |
| 2026-05-06 17:48 | 53.98078 | 27.96164 | 5729 ft | 278 kts | 10° |
| 2026-05-06 17:48 | 53.99970 | 27.97135 | 6575 ft | 283 kts | 16° |
| 2026-05-06 17:48 | 54.01842 | 27.98229 | 7324 ft | 287 kts | 15° |
| 2026-05-06 17:48 | 54.03727 | 27.99355 | 7682 ft | 289 kts | 21° |
| 2026-05-06 17:49 | 54.05342 | 28.01315 | 7758 ft | 291 kts | 51° |
| 2026-05-06 17:49 | 54.06260 | 28.04340 | 7780 ft | 289 kts | 80° |
| 2026-05-06 17:49 | 54.06440 | 28.07709 | 7789 ft | 286 kts | 95° |
| 2026-05-06 17:49 | 54.06400 | 28.11152 | 7788 ft | 287 kts | 96° |
| 2026-05-06 17:50 | 54.06360 | 28.14489 | 7771 ft | 285 kts | 96° |
| 2026-05-06 17:50 | 54.06332 | 28.17842 | 7755 ft | 281 kts | 96° |
| 2026-05-06 17:50 | 54.06313 | 28.21152 | 7764 ft | 279 kts | 95° |
| 2026-05-06 17:50 | 54.06388 | 28.24472 | 7800 ft | 287 kts | 89° |
| 2026-05-06 17:51 | 54.06608 | 28.27967 | 8164 ft | 305 kts | 87° |
| 2026-05-06 17:51 | 54.06847 | 28.31593 | 8937 ft | 311 kts | 88° |
| 2026-05-06 17:51 | 54.07076 | 28.35234 | 9790 ft | 315 kts | 88° |
| 2026-05-06 17:51 | 54.07416 | 28.38953 | 10547 ft | 324 kts | 74° |
| 2026-05-06 17:52 | 54.08448 | 28.42476 | 10986 ft | 345 kts | 59° |
| 2026-05-06 17:52 | 54.09783 | 28.46059 | 11170 ft | 371 kts | 58° |
| 2026-05-06 17:52 | 54.11239 | 28.49848 | 11353 ft | 395 kts | 53° |
| 2026-05-06 17:52 | 54.13265 | 28.53163 | 11504 ft | 414 kts | 31° |
| 2026-05-06 17:53 | 54.15868 | 28.55387 | 11894 ft | 424 kts | 21° |
| 2026-05-06 17:53 | 54.18582 | 28.57417 | 12518 ft | 428 kts | 21° |
| 2026-05-06 17:53 | 54.21332 | 28.59462 | 13201 ft | 432 kts | 21° |
| 2026-05-06 17:53 | 54.24096 | 28.61542 | 13844 ft | 437 kts | 21° |
| 2026-05-06 17:54 | 54.26884 | 28.63671 | 14478 ft | 439 kts | 21° |
| 2026-05-06 17:54 | 54.29672 | 28.65825 | 15177 ft | 441 kts | 21° |
| 2026-05-06 17:54 | 54.32469 | 28.68001 | 15798 ft | 444 kts | 22° |
| 2026-05-06 17:54 | 54.35292 | 28.70203 | 16391 ft | 447 kts | 22° |
| 2026-05-06 17:55 | 54.38138 | 28.72426 | 16983 ft | 450 kts | 22° |
| 2026-05-06 17:55 | 54.40997 | 28.74662 | 17585 ft | 453 kts | 22° |
| 2026-05-06 17:55 | 54.43874 | 28.76914 | 18171 ft | 455 kts | 22° |
| 2026-05-06 17:55 | 54.46712 | 28.79368 | 18646 ft | 462 kts | 32° |
| 2026-05-06 17:56 | 54.49111 | 28.83061 | 19133 ft | 467 kts | 50° |
| 2026-05-06 17:56 | 54.50822 | 28.87829 | 19650 ft | 469 kts | 64° |
| 2026-05-06 17:56 | 54.52230 | 28.92900 | 20164 ft | 471 kts | 65° |
| 2026-05-06 17:56 | 54.53615 | 28.98024 | 20603 ft | 474 kts | 65° |
| 2026-05-06 17:57 | 54.55016 | 29.03196 | 21038 ft | 477 kts | 65° |
| 2026-05-06 17:57 | 54.56438 | 29.08378 | 21496 ft | 480 kts | 65° |
| 2026-05-06 17:57 | 54.57880 | 29.13572 | 21961 ft | 481 kts | 64° |
| 2026-05-06 17:57 | 54.59334 | 29.18777 | 22400 ft | 484 kts | 64° |
| 2026-05-06 17:58 | 54.60801 | 29.24018 | 22811 ft | 486 kts | 64° |
| 2026-05-06 17:58 | 54.62271 | 29.29282 | 23212 ft | 488 kts | 64° |
| 2026-05-06 17:58 | 54.63746 | 29.34577 | 23562 ft | 491 kts | 64° |
| 2026-05-06 17:58 | 54.65224 | 29.39900 | 23906 ft | 493 kts | 64° |
| 2026-05-06 17:59 | 54.66710 | 29.45254 | 24245 ft | 495 kts | 64° |
| 2026-05-06 17:59 | 54.68408 | 29.50435 | 24568 ft | 497 kts | 55° |
| 2026-05-06 17:59 | 54.70480 | 29.55216 | 24894 ft | 498 kts | 51° |
| 2026-05-06 17:59 | 54.72632 | 29.59920 | 25204 ft | 500 kts | 51° |
| 2026-05-06 18:00 | 54.74804 | 29.64625 | 25487 ft | 502 kts | 51° |
| 2026-05-06 18:00 | 54.76984 | 29.69374 | 25780 ft | 504 kts | 51° |
| 2026-05-06 18:00 | 54.79131 | 29.74101 | 26047 ft | 506 kts | 51° |
| 2026-05-06 18:00 | 54.81327 | 29.78986 | 26364 ft | 507 kts | 52° |
| 2026-05-06 18:01 | 54.83479 | 29.83812 | 26754 ft | 505 kts | 52° |
| 2026-05-06 18:01 | 54.85617 | 29.88634 | 27189 ft | 503 kts | 52° |
| 2026-05-06 18:01 | 54.87720 | 29.93387 | 27619 ft | 502 kts | 52° |
| 2026-05-06 18:01 | 54.89841 | 29.98192 | 28003 ft | 501 kts | 52° |
| 2026-05-06 18:02 | 54.91961 | 30.03000 | 28401 ft | 500 kts | 52° |
| 2026-05-06 18:02 | 54.94075 | 30.07802 | 28821 ft | 499 kts | 52° |
| 2026-05-06 18:02 | 54.96181 | 30.12596 | 29240 ft | 498 kts | 52° |
| 2026-05-06 18:02 | 54.98279 | 30.17376 | 29671 ft | 496 kts | 52° |
| 2026-05-06 18:03 | 55.00341 | 30.22086 | 30044 ft | 495 kts | 52° |
| 2026-05-06 18:03 | 55.02427 | 30.26857 | 30355 ft | 495 kts | 52° |
| 2026-05-06 18:03 | 55.04506 | 30.31623 | 30679 ft | 494 kts | 52° |
| 2026-05-06 18:03 | 55.06587 | 30.36402 | 31032 ft | 493 kts | 52° |
| 2026-05-06 18:04 | 55.08656 | 30.41164 | 31380 ft | 492 kts | 52° |
| 2026-05-06 18:04 | 55.10716 | 30.45915 | 31722 ft | 491 kts | 52° |
| 2026-05-06 18:04 | 55.12773 | 30.50666 | 32020 ft | 491 kts | 52° |
| 2026-05-06 18:04 | 55.14826 | 30.55419 | 32323 ft | 490 kts | 52° |
| 2026-05-06 18:05 | 55.16878 | 30.60178 | 32648 ft | 489 kts | 52° |
| 2026-05-06 18:05 | 55.18919 | 30.64921 | 32982 ft | 488 kts | 52° |
| 2026-05-06 18:05 | 55.20957 | 30.69668 | 33282 ft | 487 kts | 52° |
| 2026-05-06 18:05 | 55.22993 | 30.74415 | 33574 ft | 487 kts | 53° |
| 2026-05-06 18:06 | 55.25023 | 30.79158 | 33861 ft | 486 kts | 53° |
| 2026-05-06 18:06 | 55.27001 | 30.83971 | 34133 ft | 485 kts | 57° |
| 2026-05-06 18:06 | 55.28626 | 30.89145 | 34367 ft | 485 kts | 66° |
| 2026-05-06 18:06 | 55.29799 | 30.94702 | 34589 ft | 485 kts | 72° |
| 2026-05-06 18:07 | 55.30830 | 31.00325 | 34821 ft | 484 kts | 73° |
| 2026-05-06 18:07 | 55.31850 | 31.05984 | 34836 ft | 488 kts | 73° |
| 2026-05-06 18:07 | 55.33941 | 31.17290 | 34850 ft | 485 kts | 72° |
| 2026-05-06 18:08 | 55.36065 | 31.28500 | 34853 ft | 482 kts | 72° |
| 2026-05-06 18:08 | 55.38154 | 31.39607 | 34865 ft | 480 kts | 72° |
| 2026-05-06 18:09 | 55.39897 | 31.48955 | 34856 ft | 480 kts | 72° |
| 2026-05-06 18:09 | 55.42311 | 31.61985 | 34867 ft | 479 kts | 72° |
| 2026-05-06 18:10 | 55.44022 | 31.71270 | 34866 ft | 480 kts | 72° |
| 2026-05-06 18:10 | 55.46408 | 31.84293 | 34875 ft | 481 kts | 72° |
| 2026-05-06 18:11 | 55.48124 | 31.93719 | 34875 ft | 482 kts | 73° |
| 2026-05-06 18:11 | 55.50169 | 32.05008 | 34870 ft | 484 kts | 73° |
| 2026-05-06 18:12 | 55.52205 | 32.16320 | 34876 ft | 484 kts | 73° |
| 2026-05-06 18:12 | 55.54235 | 32.27670 | 34873 ft | 485 kts | 73° |
| 2026-05-06 18:13 | 55.56256 | 32.39039 | 34870 ft | 485 kts | 73° |
| 2026-05-06 18:13 | 55.58252 | 32.50335 | 34883 ft | 485 kts | 73° |
| 2026-05-06 18:14 | 55.60253 | 32.61733 | 34877 ft | 485 kts | 73° |
| 2026-05-06 18:14 | 55.62242 | 32.73135 | 34883 ft | 485 kts | 73° |
| 2026-05-06 18:15 | 55.64222 | 32.84554 | 34888 ft | 485 kts | 73° |
| 2026-05-06 18:15 | 55.66188 | 32.95970 | 34885 ft | 485 kts | 73° |
| 2026-05-06 18:16 | 55.68145 | 33.07402 | 34891 ft | 485 kts | 73° |
| 2026-05-06 18:16 | 55.70092 | 33.18845 | 34890 ft | 484 kts | 73° |
| 2026-05-06 18:17 | 55.72025 | 33.30282 | 34893 ft | 484 kts | 73° |
| 2026-05-06 18:17 | 55.73943 | 33.41719 | 34896 ft | 484 kts | 73° |
| 2026-05-06 18:18 | 55.75853 | 33.53175 | 34892 ft | 484 kts | 73° |
| 2026-05-06 18:18 | 55.77753 | 33.64645 | 34900 ft | 484 kts | 74° |
| 2026-05-06 18:19 | 55.79641 | 33.76115 | 34900 ft | 484 kts | 74° |
| 2026-05-06 18:19 | 55.81516 | 33.87585 | 34910 ft | 484 kts | 74° |
| 2026-05-06 18:20 | 55.83384 | 33.99091 | 34905 ft | 484 kts | 74° |
| 2026-05-06 18:20 | 55.85241 | 34.10606 | 34907 ft | 484 kts | 74° |
| 2026-05-06 18:21 | 55.87090 | 34.22141 | 34909 ft | 484 kts | 74° |
| 2026-05-06 18:21 | 55.88898 | 34.33699 | 34897 ft | 485 kts | 77° |
| 2026-05-06 18:22 | 55.89565 | 34.45601 | 34919 ft | 483 kts | 89° |
| 2026-05-06 18:22 | 55.89695 | 34.57498 | 34909 ft | 484 kts | 90° |
| 2026-05-06 18:23 | 55.89856 | 34.69563 | 34913 ft | 484 kts | 89° |
| 2026-05-06 18:23 | 55.90055 | 34.81476 | 34912 ft | 484 kts | 89° |
| 2026-05-06 18:24 | 55.90254 | 34.93464 | 34911 ft | 484 kts | 89° |
| 2026-05-06 18:24 | 55.90436 | 35.05448 | 34914 ft | 484 kts | 89° |
| 2026-05-06 18:25 | 55.90609 | 35.17426 | 34912 ft | 483 kts | 89° |
| 2026-05-06 18:25 | 55.90775 | 35.29403 | 34913 ft | 483 kts | 89° |
| 2026-05-06 18:26 | 55.90929 | 35.41375 | 34911 ft | 483 kts | 89° |
| 2026-05-06 18:26 | 55.91071 | 35.53340 | 34916 ft | 483 kts | 89° |
| 2026-05-06 18:27 | 55.91202 | 35.65305 | 34912 ft | 483 kts | 89° |
| 2026-05-06 18:27 | 55.91322 | 35.77275 | 34915 ft | 483 kts | 89° |
| 2026-05-06 18:28 | 55.91485 | 35.88509 | 34910 ft | 483 kts | 87° |
| 2026-05-06 18:28 | 55.91998 | 36.00443 | 34910 ft | 482 kts | 85° |
| 2026-05-06 18:29 | 55.92585 | 36.12349 | 34915 ft | 482 kts | 85° |
| 2026-05-06 18:29 | 55.93126 | 36.24230 | 34911 ft | 482 kts | 85° |
| 2026-05-06 18:30 | 55.93628 | 36.36143 | 34913 ft | 482 kts | 86° |
| 2026-05-06 18:30 | 55.94111 | 36.48049 | 34913 ft | 481 kts | 86° |
| 2026-05-06 18:31 | 55.94584 | 36.59966 | 34914 ft | 481 kts | 86° |
| 2026-05-06 18:31 | 55.95044 | 36.71790 | 34906 ft | 481 kts | 86° |
| 2026-05-06 18:32 | 55.95495 | 36.83704 | 34911 ft | 481 kts | 86° |
| 2026-05-06 18:32 | 55.95935 | 36.95608 | 34914 ft | 481 kts | 86° |
| 2026-05-06 18:33 | 55.96365 | 37.07530 | 34904 ft | 481 kts | 86° |
| 2026-05-06 18:33 | 55.96783 | 37.19455 | 34915 ft | 481 kts | 86° |
| 2026-05-06 18:34 | 55.97190 | 37.31383 | 34911 ft | 481 kts | 86° |
| 2026-05-06 18:34 | 55.97566 | 37.43310 | 34911 ft | 481 kts | 86° |
| 2026-05-06 18:35 | 55.97925 | 37.55246 | 34911 ft | 481 kts | 86° |
| 2026-05-06 18:35 | 55.98277 | 37.67191 | 34906 ft | 482 kts | 86° |
| 2026-05-06 18:36 | 55.98617 | 37.79054 | 34909 ft | 482 kts | 87° |
| 2026-05-06 18:36 | 55.98956 | 37.91001 | 34905 ft | 482 kts | 87° |
| 2026-05-06 18:37 | 55.99288 | 38.02951 | 34901 ft | 482 kts | 87° |
| 2026-05-06 18:37 | 55.99608 | 38.14900 | 34899 ft | 482 kts | 87° |
| 2026-05-06 18:38 | 55.99917 | 38.26860 | 34896 ft | 482 kts | 87° |
| 2026-05-06 18:38 | 56.00212 | 38.38786 | 34896 ft | 482 kts | 87° |
| 2026-05-06 18:39 | 56.00496 | 38.50742 | 34895 ft | 481 kts | 87° |
| 2026-05-06 18:40 | 56.00901 | 38.68663 | 34896 ft | 481 kts | 87° |
| 2026-05-06 18:40 | 56.01157 | 38.80610 | 34892 ft | 481 kts | 87° |
| 2026-05-06 18:41 | 56.01401 | 38.92557 | 34896 ft | 481 kts | 87° |
| 2026-05-06 18:41 | 56.01633 | 39.04506 | 34895 ft | 481 kts | 87° |
| 2026-05-06 18:42 | 56.01854 | 39.16452 | 34901 ft | 481 kts | 88° |
| 2026-05-06 18:42 | 56.02063 | 39.28411 | 34896 ft | 481 kts | 88° |
| 2026-05-06 18:43 | 56.02261 | 39.40353 | 34900 ft | 481 kts | 88° |
| 2026-05-06 18:43 | 56.02447 | 39.52224 | 34898 ft | 481 kts | 88° |
| 2026-05-06 18:44 | 56.02623 | 39.64172 | 34903 ft | 481 kts | 88° |
| 2026-05-06 18:44 | 56.02815 | 39.76118 | 34902 ft | 481 kts | 88° |
| 2026-05-06 18:45 | 56.02999 | 39.88058 | 34904 ft | 481 kts | 88° |
| 2026-05-06 18:45 | 56.03167 | 40.00003 | 34908 ft | 481 kts | 88° |
| 2026-05-06 18:46 | 56.03325 | 40.11944 | 34903 ft | 481 kts | 88° |
| 2026-05-06 18:46 | 56.03472 | 40.23902 | 34909 ft | 480 kts | 88° |
| 2026-05-06 18:47 | 56.03607 | 40.35838 | 34902 ft | 480 kts | 88° |
| 2026-05-06 18:47 | 56.03732 | 40.47785 | 34908 ft | 481 kts | 88° |
| 2026-05-06 18:48 | 56.03844 | 40.59739 | 34907 ft | 481 kts | 88° |
| 2026-05-06 18:48 | 56.03947 | 40.71693 | 34907 ft | 481 kts | 88° |
| 2026-05-06 18:49 | 56.04035 | 40.83642 | 34900 ft | 480 kts | 88° |
| 2026-05-06 18:49 | 56.04109 | 40.95586 | 34905 ft | 480 kts | 88° |
| 2026-05-06 18:50 | 56.04172 | 41.07539 | 34906 ft | 480 kts | 89° |
| 2026-05-06 18:50 | 56.04224 | 41.19478 | 34897 ft | 480 kts | 89° |
| 2026-05-06 18:51 | 56.04265 | 41.31414 | 34900 ft | 480 kts | 89° |
| 2026-05-06 18:51 | 56.04295 | 41.43356 | 34901 ft | 480 kts | 89° |
| 2026-05-06 18:52 | 56.04313 | 41.55276 | 34894 ft | 480 kts | 89° |
| 2026-05-06 18:52 | 56.04320 | 41.67212 | 34895 ft | 479 kts | 89° |
| 2026-05-06 18:53 | 56.04315 | 41.79127 | 34893 ft | 479 kts | 89° |
| 2026-05-06 18:53 | 56.04299 | 41.90959 | 34890 ft | 479 kts | 89° |
| 2026-05-06 18:54 | 56.04271 | 42.02875 | 34897 ft | 479 kts | 89° |
| 2026-05-06 18:54 | 56.04232 | 42.14796 | 34888 ft | 479 kts | 89° |
| 2026-05-06 18:55 | 56.04181 | 42.26705 | 34887 ft | 479 kts | 89° |
| 2026-05-06 18:55 | 56.04120 | 42.38627 | 34888 ft | 479 kts | 90° |
| 2026-05-06 18:56 | 56.04048 | 42.50536 | 34887 ft | 479 kts | 90° |
| 2026-05-06 18:56 | 56.03938 | 42.62452 | 34886 ft | 479 kts | 90° |
| 2026-05-06 18:57 | 56.03779 | 42.74352 | 34881 ft | 479 kts | 90° |
| 2026-05-06 18:57 | 56.03613 | 42.86239 | 34884 ft | 478 kts | 90° |
| 2026-05-06 18:58 | 56.03440 | 42.98139 | 34878 ft | 478 kts | 91° |
| 2026-05-06 18:58 | 56.03259 | 43.10016 | 34883 ft | 478 kts | 91° |
| 2026-05-06 18:59 | 56.03067 | 43.21904 | 34878 ft | 478 kts | 91° |
| 2026-05-06 18:59 | 56.02890 | 43.33702 | 34878 ft | 478 kts | 88° |
| 2026-05-06 19:00 | 56.03548 | 43.45486 | 34880 ft | 476 kts | 81° |
| 2026-05-06 19:00 | 56.04416 | 43.57234 | 34882 ft | 476 kts | 81° |
| 2026-05-06 19:01 | 56.05245 | 43.68985 | 34880 ft | 476 kts | 82° |
| 2026-05-06 19:01 | 56.05904 | 43.78851 | 34880 ft | 476 kts | 82° |
| 2026-05-06 19:02 | 56.06663 | 43.90537 | 34884 ft | 476 kts | 82° |
| 2026-05-06 19:02 | 56.07421 | 44.02390 | 34877 ft | 476 kts | 82° |
| 2026-05-06 19:03 | 56.08163 | 44.14156 | 34872 ft | 476 kts | 82° |
| 2026-05-06 19:03 | 56.08890 | 44.25839 | 34880 ft | 475 kts | 82° |
| 2026-05-06 19:04 | 56.09612 | 44.37610 | 34881 ft | 475 kts | 83° |
| 2026-05-06 19:04 | 56.10322 | 44.49387 | 34875 ft | 476 kts | 83° |
| 2026-05-06 19:05 | 56.11022 | 44.61170 | 34871 ft | 475 kts | 83° |
| 2026-05-06 19:05 | 56.11276 | 44.72993 | 34881 ft | 476 kts | 91° |
| 2026-05-06 19:06 | 56.10933 | 44.84834 | 34874 ft | 476 kts | 92° |
| 2026-05-06 19:06 | 56.10641 | 44.96672 | 34872 ft | 476 kts | 91° |
| 2026-05-06 19:07 | 56.10386 | 45.08524 | 34872 ft | 476 kts | 91° |
| 2026-05-06 19:07 | 56.10102 | 45.20385 | 34873 ft | 477 kts | 92° |
| 2026-05-06 19:08 | 56.09816 | 45.32260 | 34875 ft | 477 kts | 92° |
| 2026-05-06 19:08 | 56.09523 | 45.44135 | 34875 ft | 478 kts | 92° |
| 2026-05-06 19:09 | 56.09217 | 45.56045 | 34876 ft | 479 kts | 92° |
| 2026-05-06 19:09 | 56.08898 | 45.67978 | 34872 ft | 480 kts | 92° |
| 2026-05-06 19:10 | 56.08567 | 45.79924 | 34868 ft | 481 kts | 92° |
| 2026-05-06 19:10 | 56.08224 | 45.91887 | 34873 ft | 482 kts | 92° |
| 2026-05-06 19:11 | 56.07869 | 46.03872 | 34872 ft | 482 kts | 93° |
| 2026-05-06 19:11 | 56.07502 | 46.15866 | 34882 ft | 483 kts | 93° |
| 2026-05-06 19:12 | 56.07123 | 46.27870 | 34878 ft | 484 kts | 93° |
| 2026-05-06 19:12 | 56.06733 | 46.39905 | 34876 ft | 484 kts | 93° |
| 2026-05-06 19:13 | 56.06124 | 46.51902 | 34869 ft | 484 kts | 102° |
| 2026-05-06 19:13 | 56.04022 | 46.63314 | 34879 ft | 483 kts | 112° |
| 2026-05-06 19:13 | 56.02771 | 46.68922 | 34423 ft | 489 kts | 113° |
| 2026-05-06 19:14 | 56.01516 | 46.74545 | 33879 ft | 484 kts | 112° |
| 2026-05-06 19:14 | 56.00292 | 46.80093 | 32977 ft | 486 kts | 112° |
| 2026-05-06 19:14 | 55.99068 | 46.85712 | 32213 ft | 485 kts | 112° |
| 2026-05-06 19:14 | 55.97852 | 46.91337 | 31432 ft | 485 kts | 111° |
| 2026-05-06 19:15 | 55.96638 | 46.96955 | 30633 ft | 485 kts | 111° |
| 2026-05-06 19:15 | 55.95421 | 47.02581 | 29782 ft | 486 kts | 111° |
| 2026-05-06 19:15 | 55.94198 | 47.08218 | 28788 ft | 487 kts | 111° |
| 2026-05-06 19:15 | 55.92972 | 47.13846 | 27840 ft | 487 kts | 111° |
| 2026-05-06 19:16 | 55.91739 | 47.19479 | 26885 ft | 488 kts | 111° |
| 2026-05-06 19:16 | 55.90519 | 47.25030 | 26241 ft | 479 kts | 111° |
| 2026-05-06 19:16 | 55.89294 | 47.30590 | 25386 ft | 480 kts | 111° |
| 2026-05-06 19:16 | 55.88079 | 47.36095 | 24655 ft | 476 kts | 111° |
| 2026-05-06 19:17 | 55.86871 | 47.41553 | 23937 ft | 472 kts | 111° |
| 2026-05-06 19:17 | 55.85669 | 47.46971 | 23164 ft | 469 kts | 111° |
| 2026-05-06 19:17 | 55.84474 | 47.52347 | 22358 ft | 465 kts | 111° |
| 2026-05-06 19:17 | 55.83287 | 47.57675 | 21622 ft | 460 kts | 111° |
| 2026-05-06 19:18 | 55.82113 | 47.62931 | 20903 ft | 455 kts | 112° |
| 2026-05-06 19:18 | 55.80948 | 47.68133 | 20192 ft | 451 kts | 112° |
| 2026-05-06 19:18 | 55.79793 | 47.73283 | 19497 ft | 446 kts | 112° |
| 2026-05-06 19:18 | 55.78647 | 47.78375 | 18816 ft | 443 kts | 112° |
| 2026-05-06 19:19 | 55.77507 | 47.83427 | 18136 ft | 439 kts | 112° |
| 2026-05-06 19:19 | 55.76373 | 47.88438 | 17386 ft | 435 kts | 112° |
| 2026-05-06 19:19 | 55.75250 | 47.93390 | 16669 ft | 430 kts | 112° |
| 2026-05-06 19:19 | 55.74136 | 47.98287 | 15979 ft | 426 kts | 112° |
| 2026-05-06 19:20 | 55.73044 | 48.03082 | 15306 ft | 422 kts | 112° |
| 2026-05-06 19:20 | 55.71934 | 48.07945 | 14628 ft | 418 kts | 112° |
| 2026-05-06 19:20 | 55.70843 | 48.12716 | 13964 ft | 415 kts | 112° |
| 2026-05-06 19:20 | 55.69775 | 48.17380 | 13244 ft | 413 kts | 112° |
| 2026-05-06 19:21 | 55.68697 | 48.22074 | 12527 ft | 409 kts | 112° |
| 2026-05-06 19:21 | 55.67627 | 48.26724 | 11839 ft | 406 kts | 112° |
| 2026-05-06 19:21 | 55.66565 | 48.31330 | 11179 ft | 402 kts | 112° |
| 2026-05-06 19:21 | 55.65522 | 48.35845 | 10955 ft | 387 kts | 112° |
| 2026-05-06 19:22 | 55.64520 | 48.40175 | 10770 ft | 373 kts | 112° |
| 2026-05-06 19:22 | 55.63553 | 48.44341 | 10618 ft | 359 kts | 112° |
| 2026-05-06 19:22 | 55.62647 | 48.48386 | 10458 ft | 348 kts | 107° |
| 2026-05-06 19:22 | 55.62285 | 48.52530 | 10331 ft | 336 kts | 93° |
| 2026-05-06 19:23 | 55.62150 | 48.56591 | 10190 ft | 326 kts | 92° |
| 2026-05-06 19:23 | 55.62031 | 48.60542 | 10054 ft | 316 kts | 92° |
| 2026-05-06 19:23 | 55.61910 | 48.64369 | 9932 ft | 308 kts | 92° |
| 2026-05-06 19:23 | 55.61785 | 48.68111 | 9799 ft | 300 kts | 92° |
| 2026-05-06 19:24 | 55.61657 | 48.71739 | 9491 ft | 298 kts | 93° |
| 2026-05-06 19:24 | 55.61523 | 48.75409 | 9171 ft | 298 kts | 93° |
| 2026-05-06 19:24 | 55.61387 | 48.79056 | 8842 ft | 297 kts | 93° |
| 2026-05-06 19:24 | 55.61248 | 48.82697 | 8529 ft | 296 kts | 93° |
| 2026-05-06 19:25 | 55.61108 | 48.86318 | 8223 ft | 295 kts | 93° |
| 2026-05-06 19:25 | 55.60967 | 48.89928 | 7921 ft | 294 kts | 93° |
| 2026-05-06 19:25 | 55.60826 | 48.93532 | 7627 ft | 293 kts | 93° |
| 2026-05-06 19:25 | 55.60683 | 48.97098 | 7435 ft | 288 kts | 93° |
| 2026-05-06 19:26 | 55.60541 | 49.00624 | 7162 ft | 286 kts | 93° |
| 2026-05-06 19:26 | 55.60400 | 49.04127 | 6878 ft | 285 kts | 93° |
| 2026-05-06 19:26 | 55.60258 | 49.07615 | 6596 ft | 284 kts | 93° |
| 2026-05-06 19:26 | 55.60115 | 49.11089 | 6317 ft | 283 kts | 93° |
| 2026-05-06 19:27 | 55.59972 | 49.14559 | 6010 ft | 282 kts | 93° |
| 2026-05-06 19:27 | 55.59830 | 49.18016 | 5732 ft | 282 kts | 93° |
| 2026-05-06 19:27 | 55.59755 | 49.19799 | 5568 ft | 283 kts | 93° |
| 2026-05-06 19:27 | 55.59610 | 49.23264 | 5263 ft | 283 kts | 94° |
| 2026-05-06 19:28 | 55.59463 | 49.26729 | 4963 ft | 282 kts | 94° |
| 2026-05-06 19:28 | 55.59289 | 49.30175 | 4670 ft | 281 kts | 100° |
| 2026-05-06 19:28 | 55.58546 | 49.33346 | 4384 ft | 279 kts | 123° |
| 2026-05-06 19:28 | 55.57440 | 49.36158 | 4100 ft | 279 kts | 127° |
| 2026-05-06 19:29 | 55.56306 | 49.38926 | 3813 ft | 278 kts | 127° |
| 2026-05-06 19:29 | 55.55194 | 49.41659 | 3530 ft | 277 kts | 126° |
| 2026-05-06 19:29 | 55.54079 | 49.44433 | 3243 ft | 277 kts | 126° |
| 2026-05-06 19:29 | 55.52965 | 49.47209 | 2944 ft | 270 kts | 126° |
| 2026-05-06 19:30 | 55.51909 | 49.49849 | 2645 ft | 263 kts | 126° |
| 2026-05-06 19:30 | 55.50840 | 49.52376 | 2535 ft | 249 kts | 137° |
| 2026-05-06 19:30 | 55.49414 | 49.53829 | 2436 ft | 231 kts | 170° |
| 2026-05-06 19:30 | 55.47857 | 49.53864 | 2368 ft | 215 kts | 198° |
| 2026-05-06 19:31 | 55.46562 | 49.52733 | 2313 ft | 212 kts | 221° |
| 2026-05-06 19:31 | 55.45645 | 49.50773 | 2224 ft | 203 kts | 245° |
| 2026-05-06 19:31 | 55.45410 | 49.46260 | 2136 ft | 181 kts | 283° |
| 2026-05-06 19:32 | 55.46017 | 49.44393 | 2055 ft | 180 kts | 324° |
| 2026-05-06 19:32 | 55.47210 | 49.43803 | 2077 ft | 180 kts | 347° |
| 2026-05-06 19:32 | 55.48433 | 49.43325 | 1980 ft | 177 kts | 342° |
| 2026-05-06 19:32 | 55.49599 | 49.42792 | 1945 ft | 172 kts | 341° |
| 2026-05-06 19:33 | 55.50750 | 49.42242 | 1917 ft | 169 kts | 341° |
| 2026-05-06 19:33 | 55.51841 | 49.41718 | 1934 ft | 157 kts | 340° |
| 2026-05-06 19:33 | 55.52895 | 49.41211 | 1895 ft | 155 kts | 342° |
| 2026-05-06 19:33 | 55.53945 | 49.40980 | 1880 ft | 152 kts | 1° |
| 2026-05-06 19:34 | 55.54962 | 49.41480 | 1901 ft | 152 kts | 10° |
| 2026-05-06 19:34 | 55.55969 | 49.41274 | 1819 ft | 143 kts | 319° |
| 2026-05-06 19:34 | 55.56367 | 49.39771 | 1701 ft | 139 kts | 271° |
| 2026-05-06 19:34 | 55.56581 | 49.38122 | 1479 ft | 141 kts | 304° |
| 2026-05-06 19:35 | 55.57276 | 49.36908 | 1328 ft | 142 kts | 304° |
| 2026-05-06 19:35 | 55.57718 | 49.35379 | 1164 ft | 142 kts | 297° |
| 2026-05-06 19:35 | 55.58280 | 49.33924 | 982 ft | 144 kts | 303° |
| 2026-05-06 19:35 | 55.58848 | 49.32470 | 778 ft | 143 kts | 303° |
| 2026-05-06 19:36 | 55.59404 | 49.31032 | 602 ft | 141 kts | 302° |
| 2026-05-06 19:36 | 55.59956 | 49.29602 | 414 ft | 138 kts | 303° |
| 2026-05-06 19:36 | 55.60428 | 49.28344 | 395 ft | 103 kts | 305° |
| 2026-05-06 19:36 | 55.60675 | 49.27714 | 391 ft | 45 kts | 304° |
| 2026-05-06 19:37 | 55.60852 | 49.27265 | 383 ft | 44 kts | 305° |
| 2026-05-06 19:37 | 55.61001 | 49.26888 | 378 ft | 28 kts | 306° |
| 2026-05-06 19:37 | 55.61166 | 49.26864 | 386 ft | 27 kts | 30° |
| 2026-05-06 19:37 | 55.61271 | 49.26971 | 388 ft | 26 kts | 31° |
| 2026-05-06 19:38 | 55.61307 | 49.27287 | 385 ft | 23 kts | 127° |
| 2026-05-06 19:38 | 55.61217 | 49.27517 | 385 ft | 22 kts | 118° |
| 2026-05-06 19:38 | 55.61201 | 49.27720 | 385 ft | 12 kts | 57° |
| 2026-05-06 19:38 | 55.61219 | 49.27752 | 385 ft | 0 kts | 37° |